Hansen Hills, California
Current Conditions -  °F | °C
As of 9:51 PM on Sunday 25 Jan 2015 (Local Time) from KVNY Reporting Station
Clear Clear  
Wind Chill: 60°   Ceiling: Unl
Heat Index: 60°   Visibility: 10mi
Dew Point: 36°   Wind: 0mph
Humidity: 41%   Direction: NA
Pressure: 30.06"   Gusts: NA
Location:  34.2561°N, 118.42°W
Report Text: KVNY 260551Z 00000KT 10SM CLR 16/02 A3006 RMK AO2 SLP171 T01560022 10250 20156 50015
Loading
Personal Weather Stations






























Interactive Weather Map New forecast layout! Learn more

10-Day Weather Forecast

Advertisements
Track Severe Weather on mobile